Time;durP1;ratioP1;P1;durP2;ratioP2;P2;SDS_P1;SDS_P2;PMS_P1;PMS_P2;Temp;Humidity;BMP_temperature;BMP_pressure;BME280_temperature;BME280_humidity;BME280_pressure;Samples;Min_cycle;Max_cycle;Signal;HPM_P1;HPM_P2
2022/02/09 00:00:45;;;;;;;32.22;24.98;;;12.80;99.90;;;;;;5060861;28;20229;-65
2022/02/09 00:03:15;;;;;;;19.88;17.77;;;12.80;99.90;;;;;;5047650;28;20221;-64
2022/02/09 00:05:48;;;;;;;15.98;13.77;;;12.80;99.90;;;;;;5051465;28;21365;-64
2022/02/09 00:08:17;;;;;;;17.20;15.40;;;12.80;99.90;;;;;;5055463;28;20251;-65
2022/02/09 00:10:47;;;;;;;28.08;22.63;;;12.80;99.90;;;;;;5051535;28;20225;-65
2022/02/09 00:16:07;;;;;;;21.48;17.52;;;12.70;99.90;;;;;;5052127;28;20230;-66
2022/02/09 00:18:41;;;;;;;20.65;18.20;;;12.70;99.90;;;;;;5055574;28;20217;-66
2022/02/09 00:29:42;;;;;;;16.70;14.35;;;12.60;99.90;;;;;;5050473;28;20212;-65
2022/02/09 00:32:35;;;;;;;20.95;18.65;;;12.60;99.90;;;;;;5047892;28;20232;-65
2022/02/09 00:43:50;;;;;;;48.42;43.20;;;12.50;99.90;;;;;;5002389;28;20724;-65
2022/02/09 01:11:36;;;;;;;72.78;54.42;;;12.60;99.90;;;;;;5045204;28;20236;-67
2022/02/09 01:38:54;;;;;;;17.50;15.23;;;12.50;99.90;;;;;;5043854;28;20295;-63
2022/02/09 01:55:32;;;;;;;13.18;11.88;;;12.30;99.90;;;;;;5054599;28;20263;-64
2022/02/09 01:57:59;;;;;;;21.52;17.10;;;12.30;99.90;;;;;;5074098;28;20278;-64
2022/02/09 02:00:27;;;;;;;12.90;11.50;;;12.30;99.90;;;;;;5074404;28;20243;-65
2022/02/09 02:02:56;;;;;;;20.88;17.27;;;12.30;99.90;;;;;;5073771;28;20225;-65
2022/02/09 02:05:23;;;;;;;14.80;13.30;;;12.20;99.90;;;;;;5074241;28;20770;-64
2022/02/09 02:07:52;;;;;;;14.35;12.77;;;12.30;99.90;;;;;;5073956;28;20240;-65
2022/02/09 02:10:27;;;;;;;14.05;12.55;;;12.30;99.90;;;;;;5073969;28;20239;-63
2022/02/09 02:13:06;;;;;;;18.15;15.23;;;12.30;99.90;;;;;;5043182;28;20228;-63
2022/02/09 02:16:12;;;;;;;15.70;14.07;;;12.30;99.90;;;;;;5052084;28;20229;-64
2022/02/09 02:18:42;;;;;;;13.38;12.18;;;12.30;99.90;;;;;;5045745;28;20558;-63
2022/02/09 02:21:24;;;;;;;16.38;14.65;;;12.20;99.90;;;;;;5050941;28;20251;-64
2022/02/09 02:26:47;;;;;;;22.63;18.63;;;12.30;99.90;;;;;;5053007;28;20221;-65
2022/02/09 02:29:42;;;;;;;16.70;14.45;;;12.30;99.90;;;;;;5053587;28;20311;-63
2022/02/09 02:32:30;;;;;;;16.00;14.30;;;12.30;99.90;;;;;;5053411;28;20608;-63
2022/02/09 02:35:53;;;;;;;19.60;15.32;;;12.30;99.90;;;;;;5053722;28;20261;-63
2022/02/09 02:44:27;;;;;;;17.45;14.52;;;12.50;99.90;;;;;;5033408;28;20324;-63
2022/02/09 02:47:18;;;;;;;18.85;16.92;;;12.50;99.90;;;;;;5038031;28;20229;-63
2022/02/09 02:58:53;;;;;;;16.00;14.43;;;12.60;99.90;;;;;;5038627;28;20227;-63
2022/02/09 03:09:54;;;;;;;22.10;18.48;;;12.70;99.90;;;;;;5053223;28;20674;-64
2022/02/09 03:12:35;;;;;;;14.70;13.20;;;12.80;99.90;;;;;;5052627;28;20224;-63
2022/02/09 03:15:17;;;;;;;15.02;13.45;;;12.70;99.90;;;;;;5053022;28;20231;-63
2022/02/09 03:17:51;;;;;;;16.38;14.55;;;12.80;99.90;;;;;;5065676;28;20312;-63
2022/02/09 03:20:23;;;;;;;13.80;12.40;;;12.90;99.90;;;;;;5072880;28;20766;-64
2022/02/09 03:22:57;;;;;;;11.15;10.07;;;12.90;99.90;;;;;;5072833;28;20231;-64
2022/02/09 03:44:55;;;;;;;11.73;10.65;;;12.80;99.90;;;;;;5072923;28;20254;-63
2022/02/09 03:47:46;;;;;;;13.43;12.23;;;12.80;99.90;;;;;;5072345;28;20260;-63
2022/02/09 03:50:39;;;;;;;15.05;13.55;;;12.80;99.90;;;;;;5064476;28;20221;-63
2022/02/09 03:53:20;;;;;;;15.93;14.43;;;12.80;99.90;;;;;;5054023;28;20229;-64
2022/02/09 03:56:12;;;;;;;17.67;15.98;;;12.80;99.90;;;;;;5073126;28;20279;-63
2022/02/09 03:58:39;;;;;;;18.48;16.67;;;12.80;99.90;;;;;;5057395;28;20221;-63
2022/02/09 04:01:05;;;;;;;14.85;13.35;;;12.80;99.90;;;;;;5052631;28;20225;-64
2022/02/09 04:03:34;;;;;;;19.65;17.77;;;12.80;99.90;;;;;;5052686;28;20232;-63
2022/02/09 04:06:00;;;;;;;18.92;17.10;;;12.80;99.90;;;;;;5052340;28;20209;-63
2022/02/09 04:08:30;;;;;;;18.38;16.60;;;12.80;99.90;;;;;;5052799;28;20233;-63
2022/02/09 04:11:06;;;;;;;19.38;17.48;;;12.80;99.90;;;;;;5069655;28;20740;-63
2022/02/09 04:13:42;;;;;;;18.33;16.42;;;12.80;99.90;;;;;;5072477;28;20227;-63
2022/02/09 04:16:17;;;;;;;17.02;15.45;;;12.80;99.90;;;;;;5052284;28;20224;-63
2022/02/09 04:18:56;;;;;;;21.30;19.10;;;12.80;99.90;;;;;;5040995;28;20225;-63
2022/02/09 04:38:02;;;;;;;19.85;17.75;;;12.90;99.90;;;;;;5046181;28;20228;-63
2022/02/09 04:41:16;;;;;;;20.30;18.20;;;12.80;99.90;;;;;;5064868;28;20234;-63
2022/02/09 04:46:34;;;;;;;22.48;19.98;;;12.90;99.90;;;;;;5070581;28;20224;-63
2022/02/09 04:49:22;;;;;;;30.83;24.52;;;12.80;99.90;;;;;;5073936;28;20216;-63
2022/02/09 04:52:03;;;;;;;23.48;21.05;;;12.90;99.90;;;;;;5055945;28;20245;-63
2022/02/09 04:54:35;;;;;;;22.90;19.73;;;12.80;99.90;;;;;;5058274;28;20245;-63
2022/02/09 04:57:06;;;;;;;22.30;19.88;;;12.80;99.90;;;;;;5055926;28;20216;-63
2022/02/09 04:59:41;;;;;;;22.92;20.45;;;12.90;99.90;;;;;;5055782;28;20236;-62
2022/02/09 05:02:35;;;;;;;19.30;17.40;;;12.90;99.90;;;;;;5055535;28;20233;-63
2022/02/09 05:19:28;;;;;;;17.77;16.08;;;12.90;99.90;;;;;;5074901;28;20263;-63
2022/02/09 05:24:43;;;;;;;20.23;18.02;;;12.90;99.90;;;;;;5075028;28;20216;-63
2022/02/09 05:27:19;;;;;;;16.83;15.18;;;12.80;99.90;;;;;;5074927;28;20231;-63
2022/02/09 05:29:46;;;;;;;17.30;15.55;;;12.80;99.90;;;;;;5075156;28;20238;-63
2022/02/09 05:32:13;;;;;;;17.27;15.57;;;12.80;99.90;;;;;;5074680;28;20220;-63
2022/02/09 05:34:39;;;;;;;17.15;15.35;;;12.80;99.90;;;;;;5075070;28;20552;-63
2022/02/09 05:37:06;;;;;;;17.38;15.57;;;12.90;99.90;;;;;;5074627;28;20228;-63
2022/02/09 05:39:34;;;;;;;18.42;16.52;;;12.90;99.90;;;;;;5074881;28;20225;-63
2022/02/09 05:42:04;;;;;;;17.88;16.17;;;12.90;99.90;;;;;;5055301;28;20237;-63
2022/02/09 05:44:31;;;;;;;16.92;14.80;;;12.90;99.90;;;;;;5054705;28;20240;-63
2022/02/09 05:47:42;;;;;;;14.55;12.88;;;12.90;99.90;;;;;;5054346;28;20707;-63
2022/02/09 05:50:03;;;;;;;14.70;13.30;;;12.90;99.90;;;;;;5054313;28;20673;-63
2022/02/09 05:52:42;;;;;;;15.07;13.57;;;12.90;99.90;;;;;;5060680;28;20216;-63
2022/02/09 05:55:34;;;;;;;12.82;11.52;;;12.90;99.90;;;;;;5074022;28;20228;-63
2022/02/09 05:58:08;;;;;;;19.80;16.90;;;12.90;99.90;;;;;;5073355;28;20303;-63
2022/02/09 06:00:35;;;;;;;14.85;11.90;;;12.80;99.90;;;;;;5055764;28;20567;-63
2022/02/09 06:03:02;;;;;;;10.85;9.73;;;12.80;99.90;;;;;;5071079;28;20216;-63
2022/02/09 06:05:31;;;;;;;12.57;11.38;;;12.80;99.90;;;;;;5074257;28;20236;-63
2022/02/09 06:07:58;;;;;;;10.63;9.63;;;12.80;99.90;;;;;;5073459;28;20475;-63
2022/02/09 06:10:30;;;;;;;10.52;9.45;;;12.80;99.90;;;;;;5056894;28;20300;-63
2022/02/09 06:13:11;;;;;;;9.65;8.85;;;12.80;99.90;;;;;;5053702;28;20241;-63
2022/02/09 06:21:06;;;;;;;11.45;9.18;;;12.80;99.90;;;;;;5073726;28;20366;-64
2022/02/09 06:23:34;;;;;;;15.15;12.00;;;12.70;99.90;;;;;;5074102;28;20220;-64
2022/02/09 06:26:03;;;;;;;16.20;14.48;;;12.70;99.90;;;;;;5073887;28;20217;-64
2022/02/09 06:28:30;;;;;;;14.63;12.23;;;12.80;99.90;;;;;;5074385;28;20227;-64
2022/02/09 06:30:57;;;;;;;10.25;9.35;;;12.80;99.90;;;;;;5073964;28;20220;-64
2022/02/09 06:33:24;;;;;;;9.45;8.55;;;12.80;99.90;;;;;;5065775;28;20948;-64
2022/02/09 06:35:53;;;;;;;11.77;10.30;;;12.80;99.90;;;;;;5054091;28;20685;-64
2022/02/09 06:38:21;;;;;;;10.23;9.23;;;12.80;99.90;;;;;;5053829;28;20237;-64
2022/02/09 06:40:52;;;;;;;12.38;9.70;;;12.90;99.90;;;;;;5053851;28;20410;-64
2022/02/09 06:43:20;;;;;;;10.25;8.85;;;12.90;99.90;;;;;;5053511;28;20224;-64
2022/02/09 06:45:48;;;;;;;10.05;9.05;;;12.80;99.90;;;;;;5053879;28;20213;-64
2022/02/09 06:48:16;;;;;;;11.70;10.50;;;12.80;99.90;;;;;;5056059;28;20228;-63
2022/02/09 06:50:47;;;;;;;11.43;9.93;;;12.80;99.90;;;;;;5073522;28;20228;-64
2022/02/09 06:53:28;;;;;;;10.18;9.15;;;12.80;99.90;;;;;;5073221;28;20315;-64
2022/02/09 06:55:57;;;;;;;8.73;8.02;;;12.80;99.90;;;;;;5058243;28;20236;-64
2022/02/09 07:01:21;;;;;;;8.70;7.90;;;12.80;99.90;;;;;;5085387;27;20543;-63
2022/02/09 07:03:48;;;;;;;8.77;7.93;;;12.80;99.90;;;;;;5090237;28;20223;-64
2022/02/09 07:06:15;;;;;;;9.38;8.63;;;12.90;99.90;;;;;;5089845;28;20220;-63
2022/02/09 07:08:42;;;;;;;9.93;8.80;;;12.90;99.90;;;;;;5090360;28;20678;-64
2022/02/09 07:11:09;;;;;;;10.30;7.97;;;12.90;99.90;;;;;;5089646;28;20235;-63
2022/02/09 07:13:36;;;;;;;8.05;7.25;;;12.90;99.90;;;;;;5090059;28;20298;-64
2022/02/09 07:16:05;;;;;;;12.13;8.30;;;12.90;99.90;;;;;;5063417;28;20221;-63
2022/02/09 07:18:37;;;;;;;9.20;8.40;;;12.90;99.90;;;;;;5056752;28;20224;-64
2022/02/09 07:21:08;;;;;;;8.38;7.57;;;13.00;99.90;;;;;;5069217;28;20316;-63
2022/02/09 07:23:40;;;;;;;9.80;8.38;;;13.00;99.90;;;;;;5069931;28;20225;-64
2022/02/09 07:26:11;;;;;;;9.43;8.43;;;13.00;99.90;;;;;;5069335;28;20295;-63
2022/02/09 07:28:38;;;;;;;16.40;12.38;;;13.00;99.90;;;;;;5069863;28;20224;-64
2022/02/09 07:31:07;;;;;;;9.70;8.70;;;13.00;99.90;;;;;;5069177;28;20221;-64
2022/02/09 07:33:36;;;;;;;9.73;8.80;;;12.90;99.90;;;;;;5053871;28;20299;-64
2022/02/09 07:36:03;;;;;;;11.45;9.85;;;12.90;99.90;;;;;;5049726;28;20232;-64
2022/02/09 07:38:30;;;;;;;12.00;9.77;;;13.00;99.90;;;;;;5049548;28;20247;-64
2022/02/09 07:40:59;;;;;;;13.07;9.98;;;13.00;99.90;;;;;;5049470;28;20221;-64
2022/02/09 07:43:41;;;;;;;10.23;9.27;;;13.00;99.90;;;;;;5049079;28;20238;-64
2022/02/09 07:46:38;;;;;;;8.13;7.43;;;13.00;99.90;;;;;;5049080;28;20249;-63
2022/02/09 07:49:10;;;;;;;7.95;7.13;;;12.90;99.90;;;;;;5049403;28;20260;-63
2022/02/09 07:51:44;;;;;;;10.48;8.82;;;13.00;99.90;;;;;;5049011;28;20312;-63
2022/02/09 07:54:12;;;;;;;11.25;10.15;;;13.00;99.90;;;;;;5050025;28;20655;-63
2022/02/09 07:56:40;;;;;;;9.80;9.00;;;13.00;99.90;;;;;;5049080;28;21045;-64
2022/02/09 07:59:09;;;;;;;8.73;7.85;;;13.00;99.90;;;;;;5049134;28;20223;-65
2022/02/09 08:01:36;;;;;;;12.25;11.05;;;13.10;99.90;;;;;;5048749;28;20225;-64
2022/02/09 08:04:04;;;;;;;8.55;7.13;;;13.10;99.90;;;;;;5049004;28;20217;-63
2022/02/09 08:06:32;;;;;;;9.50;8.32;;;13.10;99.90;;;;;;5048569;28;20225;-64
2022/02/09 08:09:05;;;;;;;7.97;7.18;;;13.10;99.90;;;;;;5048996;28;20232;-64
2022/02/09 08:11:37;;;;;;;8.73;7.93;;;13.20;99.90;;;;;;5041640;28;20283;-63
2022/02/09 08:28:17;;;;;;;7.47;6.78;;;13.20;99.90;;;;;;5075306;28;20216;-64
2022/02/09 08:30:48;;;;;;;7.38;6.68;;;13.20;99.90;;;;;;5075263;28;20252;-63
2022/02/09 08:33:19;;;;;;;6.57;6.00;;;13.20;99.90;;;;;;5067395;28;20324;-64
2022/02/09 08:35:48;;;;;;;7.68;6.95;;;13.20;99.90;;;;;;5055288;28;20550;-63
2022/02/09 08:38:17;;;;;;;5.43;4.88;;;13.20;99.90;;;;;;5054695;28;20239;-64
2022/02/09 08:40:46;;;;;;;4.95;4.55;;;13.30;99.90;;;;;;5054845;28;20226;-63
2022/02/09 08:43:12;;;;;;;6.78;5.43;;;13.30;99.90;;;;;;5054566;28;20225;-64
2022/02/09 08:45:40;;;;;;;6.88;6.25;;;13.30;99.90;;;;;;5055079;28;20247;-63
2022/02/09 08:48:08;;;;;;;5.93;4.28;;;13.20;99.90;;;;;;5054472;28;20217;-64
2022/02/09 08:50:35;;;;;;;5.28;4.55;;;13.10;99.90;;;;;;5057052;28;20229;-64
2022/02/09 08:53:04;;;;;;;5.20;4.70;;;13.20;99.90;;;;;;5074610;28;20220;-65
2022/02/09 08:55:34;;;;;;;6.40;5.78;;;13.20;99.90;;;;;;5055529;28;20223;-65
2022/02/09 08:58:01;;;;;;;8.25;7.45;;;13.30;99.90;;;;;;5052356;28;20741;-64
2022/02/09 09:00:31;;;;;;;5.53;5.00;;;13.30;99.90;;;;;;5074359;28;20682;-64
2022/02/09 09:03:09;;;;;;;8.70;7.05;;;13.30;99.90;;;;;;5074226;28;20220;-65
2022/02/09 09:05:44;;;;;;;8.65;5.45;;;13.40;99.90;;;;;;5062920;28;20235;-64
2022/02/09 09:08:25;;;;;;;5.07;4.68;;;13.30;99.90;;;;;;5070807;28;20258;-63
2022/02/09 09:11:16;;;;;;;5.38;4.85;;;13.30;99.90;;;;;;5074502;28;20235;-63
2022/02/09 09:31:03;;;;;;;4.22;3.83;;;13.40;99.90;;;;;;5054307;28;20550;-63
2022/02/09 09:58:48;;;;;;;6.63;5.35;;;13.70;99.90;;;;;;5054199;28;20286;-63
2022/02/09 10:01:28;;;;;;;4.30;3.90;;;13.70;99.90;;;;;;5052908;28;20260;-63
2022/02/09 10:04:14;;;;;;;6.90;5.50;;;13.60;99.90;;;;;;5053589;28;20229;-63
2022/02/09 10:35:25;;;;;;;5.65;5.10;;;13.70;99.90;;;;;;5052806;28;20600;-63
2022/02/09 10:37:52;;;;;;;8.90;6.38;;;13.70;99.90;;;;;;5052384;28;20278;-63
2022/02/09 10:40:31;;;;;;;5.10;4.70;;;13.70;99.90;;;;;;5052250;28;20317;-64
2022/02/09 10:43:01;;;;;;;5.28;4.78;;;13.70;99.90;;;;;;5052626;28;20224;-64
2022/02/09 10:45:34;;;;;;;4.45;4.10;;;13.70;99.90;;;;;;5052467;28;20225;-64
2022/02/09 10:48:02;;;;;;;5.28;4.32;;;13.80;99.90;;;;;;5053030;28;20303;-64
2022/02/09 10:50:32;;;;;;;5.28;4.85;;;13.80;99.90;;;;;;5052407;28;22582;-63
2022/02/09 10:53:01;;;;;;;6.05;4.10;;;13.90;99.90;;;;;;5052382;28;20225;-64
2022/02/09 10:55:31;;;;;;;6.15;5.55;;;13.90;99.90;;;;;;5052180;28;20225;-63
2022/02/09 10:57:58;;;;;;;9.13;7.60;;;13.90;99.90;;;;;;5052721;28;20221;-63
2022/02/09 11:00:27;;;;;;;6.85;5.88;;;13.90;99.90;;;;;;5052090;28;20471;-63
2022/02/09 11:02:54;;;;;;;7.33;5.57;;;13.90;99.90;;;;;;5052639;28;20303;-63
2022/02/09 11:05:21;;;;;;;6.60;6.10;;;13.90;99.90;;;;;;5052322;28;20474;-64
2022/02/09 11:07:50;;;;;;;5.57;5.07;;;13.90;99.90;;;;;;5051945;28;20472;-63
2022/02/09 11:10:18;;;;;;;5.10;4.60;;;13.90;99.90;;;;;;5050802;28;20225;-65
2022/02/09 11:12:45;;;;;;;5.07;4.03;;;13.90;99.90;;;;;;5052541;28;20225;-62
2022/02/09 11:15:17;;;;;;;3.97;3.58;;;13.90;99.70;;;;;;5052306;28;20235;-61
2022/02/09 11:17:47;;;;;;;6.63;5.00;;;13.90;99.80;;;;;;5044200;28;20549;-62
2022/02/09 11:20:14;;;;;;;9.68;4.13;;;13.90;99.80;;;;;;5032120;28;20472;-62
2022/02/09 11:22:41;;;;;;;8.05;4.55;;;13.90;99.60;;;;;;5032744;28;20225;-62
2022/02/09 11:25:15;;;;;;;4.70;4.05;;;13.90;99.70;;;;;;5032575;28;20375;-63
2022/02/09 11:27:51;;;;;;;4.28;3.83;;;13.90;99.70;;;;;;5032451;28;20647;-62
2022/02/09 11:30:34;;;;;;;4.18;3.70;;;13.90;99.30;;;;;;5032020;28;20229;-63
2022/02/09 11:33:23;;;;;;;3.50;2.90;;;13.90;99.40;;;;;;5032758;28;20585;-63
2022/02/09 11:36:20;;;;;;;3.90;3.60;;;13.90;99.40;;;;;;5032464;28;20311;-63
2022/02/09 11:38:51;;;;;;;3.33;2.88;;;13.90;99.50;;;;;;5032101;28;20303;-63
2022/02/09 11:41:23;;;;;;;4.75;3.47;;;14.00;99.40;;;;;;5032374;28;20230;-62
2022/02/09 11:44:00;;;;;;;5.63;3.50;;;14.10;99.00;;;;;;5032276;28;20244;-63
2022/02/09 11:55:24;;;;;;;4.50;4.10;;;14.00;99.20;;;;;;5036023;28;20271;-63
2022/02/09 11:58:41;;;;;;;7.40;4.00;;;14.10;98.90;;;;;;5035945;28;20412;-63
2022/02/09 12:01:28;;;;;;;5.80;4.93;;;14.10;99.00;;;;;;5035184;28;20668;-63
2022/02/09 12:10:02;;;;;;;4.70;4.18;;;14.00;99.30;;;;;;5055832;28;20618;-63
2022/02/09 12:12:42;;;;;;;4.90;3.90;;;14.00;99.30;;;;;;5054501;28;20231;-63
2022/02/09 12:15:31;;;;;;;6.72;4.25;;;14.00;99.30;;;;;;5055838;28;20623;-63
2022/02/09 12:18:14;;;;;;;6.72;4.57;;;14.00;99.30;;;;;;5055456;28;21223;-64
2022/02/09 12:20:47;;;;;;;5.68;5.18;;;13.90;99.40;;;;;;5055061;28;20686;-64
2022/02/09 12:23:28;;;;;;;4.07;3.60;;;13.90;99.60;;;;;;5055732;28;20221;-63
2022/02/09 12:26:00;;;;;;;9.60;4.47;;;13.90;99.80;;;;;;5055124;28;20320;-64
2022/02/09 12:28:34;;;;;;;4.03;3.70;;;13.80;99.80;;;;;;5055477;28;20497;-64
2022/02/09 12:31:07;;;;;;;5.32;4.82;;;13.80;99.90;;;;;;5054955;28;20225;-63
2022/02/09 12:33:35;;;;;;;8.05;5.07;;;13.80;99.90;;;;;;5055244;28;20221;-63
2022/02/09 12:36:12;;;;;;;4.40;4.00;;;13.80;99.90;;;;;;5054988;28;20228;-63
2022/02/09 12:38:39;;;;;;;4.57;3.50;;;13.80;99.90;;;;;;5054820;28;20466;-64
2022/02/09 12:41:10;;;;;;;3.78;3.55;;;13.70;99.90;;;;;;5054786;28;20244;-64
2022/02/09 12:43:44;;;;;;;4.00;3.60;;;13.60;99.90;;;;;;5055051;28;20237;-64
2022/02/09 12:46:13;;;;;;;4.80;3.08;;;13.60;99.90;;;;;;5054839;28;20372;-64
2022/02/09 12:48:40;;;;;;;4.00;3.70;;;13.50;99.90;;;;;;5054972;28;20236;-65
2022/02/09 12:51:08;;;;;;;6.80;4.57;;;13.50;99.90;;;;;;5054334;28;20254;-64
2022/02/09 12:53:38;;;;;;;5.53;4.90;;;13.50;99.90;;;;;;5043608;28;20229;-64
2022/02/09 12:56:19;;;;;;;5.72;5.22;;;13.50;99.90;;;;;;5034600;28;20699;-64
2022/02/09 12:58:58;;;;;;;7.10;4.60;;;13.50;99.90;;;;;;5034712;28;20229;-63
2022/02/09 13:01:26;;;;;;;5.45;5.05;;;13.60;99.90;;;;;;5035167;28;20233;-63
2022/02/09 13:03:54;;;;;;;7.15;5.78;;;13.60;99.90;;;;;;5050766;28;20217;-63
2022/02/09 13:06:21;;;;;;;5.72;5.15;;;13.60;99.90;;;;;;5054598;28;20237;-63
2022/02/09 13:08:54;;;;;;;5.13;3.80;;;13.60;99.90;;;;;;5054019;28;20232;-63
2022/02/09 13:11:27;;;;;;;5.47;5.07;;;13.60;99.90;;;;;;5054461;28;20233;-63
2022/02/09 13:14:02;;;;;;;5.30;4.82;;;13.60;99.90;;;;;;5053999;28;20309;-63
2022/02/09 13:16:52;;;;;;;4.32;3.92;;;13.60;99.90;;;;;;5054494;28;20676;-63
2022/02/09 13:19:44;;;;;;;5.13;4.68;;;13.60;99.90;;;;;;5054213;28;20213;-64
2022/02/09 14:10:23;;;;;;;4.03;3.65;;;13.70;99.90;;;;;;5048731;28;20247;-64
2022/02/09 14:11:09;;;;;;;3.15;2.95;;;13.70;99.90;;;;;;5042456;28;20244;-64
2022/02/09 14:13:59;;;;;;;3.67;3.38;;;13.70;99.90;;;;;;5053372;28;20232;-64
2022/02/09 14:16:42;;;;;;;7.10;3.60;;;13.70;99.90;;;;;;5053134;28;20217;-63
2022/02/09 14:19:32;;;;;;;4.07;3.80;;;13.70;99.90;;;;;;5053326;28;20225;-63
2022/02/09 14:50:31;;;;;;;3.30;3.10;;;13.50;99.90;;;;;;5052636;28;20282;-63
2022/02/09 14:52:47;;;;;;;3.88;3.03;;;13.50;99.90;;;;;;5052072;28;20248;-63
2022/02/09 14:58:08;;;;;;;5.63;4.20;;;13.60;99.90;;;;;;5038614;28;20217;-64
2022/02/09 15:00:46;;;;;;;5.10;3.35;;;13.50;99.90;;;;;;5051889;28;20249;-63
2022/02/09 15:03:26;;;;;;;4.28;3.92;;;13.60;99.90;;;;;;5043628;28;20221;-63
2022/02/09 15:06:19;;;;;;;3.80;3.50;;;13.60;99.90;;;;;;5052312;28;20232;-63
2022/02/09 15:08:50;;;;;;;3.92;3.63;;;13.50;99.90;;;;;;5052070;28;20607;-63
2022/02/09 15:11:26;;;;;;;4.85;4.43;;;13.50;99.90;;;;;;5052657;28;20264;-63
2022/02/09 15:14:07;;;;;;;4.68;3.90;;;13.50;99.90;;;;;;5052232;28;20224;-63
2022/02/09 15:16:43;;;;;;;6.40;4.85;;;13.50;99.90;;;;;;5046324;28;20224;-63
2022/02/09 15:19:21;;;;;;;4.80;4.40;;;13.40;99.90;;;;;;5052634;28;20221;-63
2022/02/09 15:22:01;;;;;;;5.60;5.00;;;13.40;99.90;;;;;;5053824;28;20227;-63
2022/02/09 15:24:35;;;;;;;5.40;4.90;;;13.40;99.90;;;;;;5056094;28;20315;-63
2022/02/09 15:27:04;;;;;;;6.45;5.28;;;13.50;99.90;;;;;;5056332;28;20224;-63
2022/02/09 15:29:36;;;;;;;4.57;4.05;;;13.50;99.90;;;;;;5056011;28;20280;-63
2022/02/09 15:32:06;;;;;;;4.00;3.70;;;13.40;99.90;;;;;;5056256;28;20621;-62
2022/02/09 15:34:39;;;;;;;2.80;2.60;;;13.40;99.90;;;;;;5052763;28;20674;-62
2022/02/09 15:37:16;;;;;;;4.70;4.05;;;13.50;99.90;;;;;;5036276;28;20249;-62
2022/02/09 15:39:46;;;;;;;4.00;3.70;;;13.40;99.90;;;;;;5035795;28;20317;-63
2022/02/09 15:56:24;;;;;;;4.05;3.65;;;13.30;99.90;;;;;;5045901;28;20232;-64
2022/02/09 16:23:59;;;;;;;6.13;5.63;;;13.10;99.90;;;;;;5044220;28;20224;-65
2022/02/09 16:37:48;;;;;;;7.05;6.43;;;13.20;99.90;;;;;;5035128;28;20229;-63
2022/02/09 16:45:53;;;;;;;9.02;8.13;;;13.20;99.90;;;;;;5001554;28;20240;-64
2022/02/09 16:48:19;;;;;;;6.18;5.57;;;13.20;99.90;;;;;;5035143;28;20704;-64
2022/02/09 16:50:49;;;;;;;10.63;9.45;;;13.20;99.90;;;;;;5035005;28;20227;-64
2022/02/09 16:53:33;;;;;;;8.35;7.55;;;13.30;99.90;;;;;;5044384;28;20225;-64
2022/02/09 16:56:26;;;;;;;5.32;4.93;;;13.30;99.90;;;;;;5053756;28;20221;-64
2022/02/09 17:15:37;;;;;;;5.93;5.32;;;13.10;99.90;;;;;;5040984;28;20621;-64
2022/02/09 17:20:49;;;;;;;6.07;5.53;;;13.00;99.90;;;;;;5034322;28;20228;-64
2022/02/09 17:23:17;;;;;;;4.95;4.55;;;13.10;99.90;;;;;;5033659;28;20564;-64
2022/02/09 17:25:45;;;;;;;9.32;8.50;;;13.10;99.90;;;;;;5034220;28;20226;-64
2022/02/09 17:28:15;;;;;;;9.43;8.43;;;13.10;99.90;;;;;;5033770;28;20222;-64
2022/02/09 17:33:40;;;;;;;8.85;8.00;;;13.10;99.90;;;;;;5039601;28;20224;-64
2022/02/09 17:36:13;;;;;;;6.97;6.38;;;13.10;99.90;;;;;;5038676;28;20312;-64
2022/02/09 17:38:47;;;;;;;6.70;5.63;;;13.10;99.90;;;;;;5051878;28;20308;-64
2022/02/09 17:57:46;;;;;;;8.30;6.45;;;13.20;99.90;;;;;;5032920;28;20692;-63
2022/02/09 18:00:15;;;;;;;6.47;5.97;;;13.30;99.90;;;;;;5033494;28;20305;-63
2022/02/09 18:02:44;;;;;;;6.00;4.80;;;13.20;99.90;;;;;;5039618;28;20225;-63
2022/02/09 18:05:19;;;;;;;5.25;4.20;;;13.20;99.90;;;;;;5053549;28;20221;-64
2022/02/09 18:07:50;;;;;;;11.23;8.73;;;13.20;99.90;;;;;;5053109;28;20315;-63
2022/02/09 18:10:38;;;;;;;4.47;4.07;;;13.20;99.90;;;;;;5053157;28;20229;-62
2022/02/09 18:25:10;;;;;;;7.53;5.75;;;13.20;99.90;;;;;;5028378;28;20225;-62
2022/02/09 18:27:45;;;;;;;8.80;7.60;;;13.10;99.90;;;;;;5052870;28;20231;-63
2022/02/09 18:30:30;;;;;;;11.98;10.32;;;13.20;99.90;;;;;;5052616;28;20221;-63
2022/02/09 18:33:11;;;;;;;13.10;11.68;;;13.20;99.90;;;;;;5052541;28;20683;-63
2022/02/09 18:44:11;;;;;;;8.50;7.63;;;13.20;99.90;;;;;;5042335;28;20605;-62
2022/02/09 18:46:55;;;;;;;10.98;9.88;;;13.20;99.90;;;;;;5052728;28;20971;-63
2022/02/09 19:03:32;;;;;;;10.05;9.15;;;13.40;99.90;;;;;;5050241;28;20229;-63
2022/02/09 19:06:15;;;;;;;6.72;6.13;;;13.40;99.90;;;;;;5050790;28;20229;-64
2022/02/09 19:14:25;;;;;;;10.02;9.02;;;13.30;99.90;;;;;;5034940;28;20656;-64
2022/02/09 19:17:01;;;;;;;29.23;26.25;;;13.30;99.90;;;;;;5052129;28;20217;-63
2022/02/09 19:28:38;;;;;;;21.50;18.38;;;13.40;99.90;;;;;;5052018;28;20223;-65
2022/02/09 19:30:50;;;;;;;17.70;15.57;;;13.40;99.90;;;;;;5051567;28;20663;-65
2022/02/09 19:47:07;;;;;;;55.00;39.65;;;13.30;99.90;;;;;;5056733;28;20252;-63
2022/02/09 19:49:53;;;;;;;23.25;20.77;;;13.30;99.90;;;;;;5072232;28;20228;-64
2022/02/09 19:52:33;;;;;;;11.60;9.63;;;13.30;99.90;;;;;;5060928;28;20217;-63
2022/02/09 19:55:19;;;;;;;11.05;10.10;;;13.40;99.90;;;;;;5047695;28;20244;-64
2022/02/09 19:57:46;;;;;;;15.18;12.80;;;13.40;99.90;;;;;;5032247;28;20288;-64
2022/02/09 20:00:18;;;;;;;11.75;10.57;;;13.40;99.90;;;;;;5031969;28;20234;-63
2022/02/09 20:02:47;;;;;;;16.95;15.25;;;13.40;99.90;;;;;;5049724;28;20645;-63
2022/02/09 20:05:15;;;;;;;23.80;19.65;;;13.40;99.90;;;;;;5052202;28;20236;-64
2022/02/09 20:07:44;;;;;;;13.77;12.35;;;13.40;99.90;;;;;;5053585;28;20683;-64
2022/02/09 20:10:12;;;;;;;13.27;12.05;;;13.40;99.90;;;;;;5055423;28;21306;-63
2022/02/09 20:12:40;;;;;;;20.17;16.65;;;13.40;99.90;;;;;;5055601;28;20756;-64
2022/02/09 20:15:11;;;;;;;12.50;11.07;;;13.40;99.90;;;;;;5055392;28;20280;-63
2022/02/09 20:17:39;;;;;;;17.30;15.70;;;13.40;99.90;;;;;;5055681;28;20575;-64
2022/02/09 20:20:09;;;;;;;41.90;35.47;;;13.40;99.90;;;;;;5055084;28;20233;-65
2022/02/09 20:22:37;;;;;;;11.25;10.25;;;13.30;99.90;;;;;;5055380;28;20682;-64
2022/02/09 20:25:05;;;;;;;11.32;10.13;;;13.30;99.90;;;;;;5055123;28;20221;-64
2022/02/09 20:27:35;;;;;;;9.80;8.98;;;13.30;99.90;;;;;;5055328;28;20697;-64
2022/02/09 20:30:04;;;;;;;14.20;12.70;;;13.30;99.90;;;;;;5055708;28;20693;-65
2022/02/09 20:32:36;;;;;;;11.40;10.25;;;13.30;99.90;;;;;;5055501;28;20225;-64
2022/02/09 20:35:08;;;;;;;13.32;11.82;;;13.30;99.90;;;;;;5055076;28;20556;-64
2022/02/09 20:37:45;;;;;;;10.32;9.43;;;13.30;99.90;;;;;;5068793;28;20577;-64
2022/02/09 20:40:21;;;;;;;9.30;8.20;;;13.30;99.90;;;;;;5054696;28;20368;-64
2022/02/09 20:42:53;;;;;;;18.25;16.15;;;13.30;99.90;;;;;;5046021;28;20330;-64
2022/02/09 20:45:26;;;;;;;25.33;21.42;;;13.30;99.90;;;;;;5054483;28;20237;-64
2022/02/09 20:47:58;;;;;;;16.75;14.10;;;13.30;99.90;;;;;;5054563;28;20221;-64
2022/02/09 20:50:26;;;;;;;11.60;10.43;;;13.30;99.90;;;;;;5054374;28;20237;-64
2022/02/09 20:52:54;;;;;;;11.07;9.98;;;13.30;99.90;;;;;;5052854;28;20240;-65
2022/02/09 20:55:23;;;;;;;14.13;12.70;;;13.30;99.90;;;;;;5056131;28;20688;-64
2022/02/09 20:57:49;;;;;;;8.88;8.15;;;13.30;99.90;;;;;;5055358;28;20220;-64
2022/02/09 21:00:25;;;;;;;19.55;16.75;;;13.30;99.90;;;;;;5063803;28;20228;-63
2022/02/09 21:02:58;;;;;;;10.30;9.40;;;13.30;99.90;;;;;;5060929;28;20250;-64
2022/02/09 21:08:39;;;;;;;16.05;14.45;;;13.30;99.90;;;;;;5044913;28;20602;-64
2022/02/09 21:11:14;;;;;;;13.65;12.35;;;13.30;99.90;;;;;;5048382;28;20232;-64
2022/02/09 21:13:50;;;;;;;14.52;12.93;;;13.30;99.90;;;;;;5043167;28;20284;-64
2022/02/09 21:16:27;;;;;;;14.10;12.80;;;13.20;99.90;;;;;;5045756;28;20214;-64
2022/02/09 21:28:11;;;;;;;18.40;16.48;;;13.30;99.90;;;;;;5044727;28;20457;-65
2022/02/09 21:43:12;;;;;;;11.40;10.30;;;13.20;99.90;;;;;;5034909;28;20622;-64
2022/02/09 21:45:38;;;;;;;14.13;12.75;;;13.30;99.90;;;;;;5060802;28;20303;-63
2022/02/09 21:53:47;;;;;;;24.88;22.20;;;13.20;99.90;;;;;;5052437;28;20256;-64
2022/02/09 21:56:23;;;;;;;18.40;16.35;;;13.20;99.90;;;;;;5053748;28;20766;-65
2022/02/09 21:59:11;;;;;;;36.70;29.15;;;13.20;99.90;;;;;;5047291;28;20258;-61
2022/02/09 22:01:54;;;;;;;23.20;20.70;;;13.20;99.90;;;;;;5031476;28;20222;-63
2022/02/09 22:21:17;;;;;;;24.63;22.08;;;13.20;99.90;;;;;;5033358;28;20282;-65
2022/02/09 22:29:24;;;;;;;19.95;17.80;;;13.20;99.90;;;;;;5032431;28;20635;-65
2022/02/09 22:32:04;;;;;;;27.75;22.88;;;13.20;99.90;;;;;;5045666;28;20304;-63
2022/02/09 22:35:03;;;;;;;35.90;26.65;;;13.20;99.90;;;;;;5034174;28;20225;-64